sensor_id;sensor_type;location;lat;lon;timestamp;P1;durP1;ratioP1;P2;durP2;ratioP2
21168;SDS011;10742;51.816;8.662;2024-02-04T00:03:03;4.63;;;1.73;;
21168;SDS011;10742;51.816;8.662;2024-02-04T00:06:24;4.97;;;1.70;;
21168;SDS011;10742;51.816;8.662;2024-02-04T00:09:45;4.47;;;2.30;;
21168;SDS011;10742;51.816;8.662;2024-02-04T00:13:06;5.20;;;2.00;;
21168;SDS011;10742;51.816;8.662;2024-02-04T00:16:26;5.57;;;2.20;;
21168;SDS011;10742;51.816;8.662;2024-02-04T00:19:47;2.93;;;1.80;;
21168;SDS011;10742;51.816;8.662;2024-02-04T00:23:09;7.40;;;2.70;;
21168;SDS011;10742;51.816;8.662;2024-02-04T00:26:30;2.13;;;1.80;;
21168;SDS011;10742;51.816;8.662;2024-02-04T00:29:51;8.50;;;2.50;;
21168;SDS011;10742;51.816;8.662;2024-02-04T00:33:12;4.07;;;2.00;;
21168;SDS011;10742;51.816;8.662;2024-02-04T00:36:33;3.87;;;2.13;;
21168;SDS011;10742;51.816;8.662;2024-02-04T00:39:53;3.37;;;2.10;;
21168;SDS011;10742;51.816;8.662;2024-02-04T00:43:14;2.63;;;2.03;;
21168;SDS011;10742;51.816;8.662;2024-02-04T00:46:36;6.93;;;2.37;;
21168;SDS011;10742;51.816;8.662;2024-02-04T00:49:57;7.57;;;2.60;;
21168;SDS011;10742;51.816;8.662;2024-02-04T00:53:18;7.37;;;3.00;;
21168;SDS011;10742;51.816;8.662;2024-02-04T00:56:39;4.83;;;2.37;;
21168;SDS011;10742;51.816;8.662;2024-02-04T01:00:00;8.77;;;3.63;;
21168;SDS011;10742;51.816;8.662;2024-02-04T01:03:22;11.07;;;3.83;;
21168;SDS011;10742;51.816;8.662;2024-02-04T01:06:43;7.37;;;3.60;;
21168;SDS011;10742;51.816;8.662;2024-02-04T01:10:07;11.20;;;4.07;;
21168;SDS011;10742;51.816;8.662;2024-02-04T01:13:29;6.80;;;3.40;;
21168;SDS011;10742;51.816;8.662;2024-02-04T01:16:50;6.47;;;3.27;;
21168;SDS011;10742;51.816;8.662;2024-02-04T01:20:11;14.73;;;6.03;;
21168;SDS011;10742;51.816;8.662;2024-02-04T01:23:32;18.80;;;7.83;;
21168;SDS011;10742;51.816;8.662;2024-02-04T01:26:53;16.17;;;7.40;;
21168;SDS011;10742;51.816;8.662;2024-02-04T01:30:14;21.07;;;9.97;;
21168;SDS011;10742;51.816;8.662;2024-02-04T01:33:35;25.40;;;11.50;;
21168;SDS011;10742;51.816;8.662;2024-02-04T01:36:56;27.20;;;13.70;;
21168;SDS011;10742;51.816;8.662;2024-02-04T01:40:17;29.37;;;15.47;;
21168;SDS011;10742;51.816;8.662;2024-02-04T01:43:38;29.60;;;16.03;;
21168;SDS011;10742;51.816;8.662;2024-02-04T01:46:59;29.90;;;16.77;;
21168;SDS011;10742;51.816;8.662;2024-02-04T01:50:21;28.00;;;15.67;;
21168;SDS011;10742;51.816;8.662;2024-02-04T01:53:44;30.67;;;16.47;;
21168;SDS011;10742;51.816;8.662;2024-02-04T01:57:06;31.03;;;15.70;;
21168;SDS011;10742;51.816;8.662;2024-02-04T02:00:30;28.40;;;15.23;;
21168;SDS011;10742;51.816;8.662;2024-02-04T02:03:52;29.03;;;15.30;;
21168;SDS011;10742;51.816;8.662;2024-02-04T02:07:14;28.27;;;15.07;;
21168;SDS011;10742;51.816;8.662;2024-02-04T02:10:37;28.67;;;14.97;;
21168;SDS011;10742;51.816;8.662;2024-02-04T02:14:00;30.43;;;14.67;;
21168;SDS011;10742;51.816;8.662;2024-02-04T02:18:27;29.40;;;14.67;;
21168;SDS011;10742;51.816;8.662;2024-02-04T02:25:05;23.97;;;12.90;;
21168;SDS011;10742;51.816;8.662;2024-02-04T02:28:29;23.77;;;12.13;;
21168;SDS011;10742;51.816;8.662;2024-02-04T02:31:49;22.93;;;11.47;;
21168;SDS011;10742;51.816;8.662;2024-02-04T02:35:12;23.63;;;11.53;;
21168;SDS011;10742;51.816;8.662;2024-02-04T02:38:42;22.57;;;11.10;;
21168;SDS011;10742;51.816;8.662;2024-02-04T02:42:08;19.70;;;9.77;;
21168;SDS011;10742;51.816;8.662;2024-02-04T02:45:31;20.73;;;10.50;;
21168;SDS011;10742;51.816;8.662;2024-02-04T02:48:53;19.07;;;9.83;;
21168;SDS011;10742;51.816;8.662;2024-02-04T02:52:14;19.57;;;9.70;;
21168;SDS011;10742;51.816;8.662;2024-02-04T02:55:35;17.23;;;8.60;;
21168;SDS011;10742;51.816;8.662;2024-02-04T02:58:56;17.87;;;8.83;;
21168;SDS011;10742;51.816;8.662;2024-02-04T03:02:17;18.63;;;8.70;;
21168;SDS011;10742;51.816;8.662;2024-02-04T03:05:38;17.17;;;8.70;;
21168;SDS011;10742;51.816;8.662;2024-02-04T03:08:59;17.10;;;7.97;;
21168;SDS011;10742;51.816;8.662;2024-02-04T03:12:20;13.20;;;7.03;;
21168;SDS011;10742;51.816;8.662;2024-02-04T03:15:41;15.53;;;6.87;;
21168;SDS011;10742;51.816;8.662;2024-02-04T03:19:04;13.80;;;6.83;;
21168;SDS011;10742;51.816;8.662;2024-02-04T03:22:26;14.60;;;7.07;;
21168;SDS011;10742;51.816;8.662;2024-02-04T03:25:47;10.90;;;6.07;;
21168;SDS011;10742;51.816;8.662;2024-02-04T03:29:09;10.07;;;5.40;;
21168;SDS011;10742;51.816;8.662;2024-02-04T03:32:30;11.20;;;5.50;;
21168;SDS011;10742;51.816;8.662;2024-02-04T03:35:54;9.50;;;5.23;;
21168;SDS011;10742;51.816;8.662;2024-02-04T03:39:16;10.43;;;5.30;;
21168;SDS011;10742;51.816;8.662;2024-02-04T03:42:37;8.63;;;5.17;;
21168;SDS011;10742;51.816;8.662;2024-02-04T03:45:58;7.80;;;4.43;;
21168;SDS011;10742;51.816;8.662;2024-02-04T03:49:19;6.30;;;3.80;;
21168;SDS011;10742;51.816;8.662;2024-02-04T03:52:41;5.47;;;3.30;;
21168;SDS011;10742;51.816;8.662;2024-02-04T03:56:04;8.83;;;3.57;;
21168;SDS011;10742;51.816;8.662;2024-02-04T03:59:25;4.73;;;3.00;;
21168;SDS011;10742;51.816;8.662;2024-02-04T04:02:46;7.07;;;3.47;;
21168;SDS011;10742;51.816;8.662;2024-02-04T04:06:07;7.57;;;2.90;;
21168;SDS011;10742;51.816;8.662;2024-02-04T04:09:29;10.37;;;3.50;;
21168;SDS011;10742;51.816;8.662;2024-02-04T04:12:50;8.23;;;3.23;;
21168;SDS011;10742;51.816;8.662;2024-02-04T04:16:11;4.90;;;3.30;;
21168;SDS011;10742;51.816;8.662;2024-02-04T04:19:32;7.23;;;3.10;;
21168;SDS011;10742;51.816;8.662;2024-02-04T04:22:56;5.27;;;3.23;;
21168;SDS011;10742;51.816;8.662;2024-02-04T04:26:17;7.43;;;3.50;;
21168;SDS011;10742;51.816;8.662;2024-02-04T04:29:38;4.83;;;3.10;;
21168;SDS011;10742;51.816;8.662;2024-02-04T04:32:59;5.03;;;3.00;;
21168;SDS011;10742;51.816;8.662;2024-02-04T04:36:20;7.30;;;3.27;;
21168;SDS011;10742;51.816;8.662;2024-02-04T04:39:41;6.17;;;3.00;;
21168;SDS011;10742;51.816;8.662;2024-02-04T04:43:02;6.93;;;3.13;;
21168;SDS011;10742;51.816;8.662;2024-02-04T04:46:23;4.10;;;2.67;;
21168;SDS011;10742;51.816;8.662;2024-02-04T04:49:44;4.33;;;2.83;;
21168;SDS011;10742;51.816;8.662;2024-02-04T04:53:05;6.93;;;2.60;;
21168;SDS011;10742;51.816;8.662;2024-02-04T04:56:26;4.50;;;2.70;;
21168;SDS011;10742;51.816;8.662;2024-02-04T04:59:47;5.70;;;2.90;;
21168;SDS011;10742;51.816;8.662;2024-02-04T05:03:08;5.23;;;2.87;;
21168;SDS011;10742;51.816;8.662;2024-02-04T05:06:29;4.90;;;2.70;;
21168;SDS011;10742;51.816;8.662;2024-02-04T05:09:50;4.17;;;2.77;;
21168;SDS011;10742;51.816;8.662;2024-02-04T05:13:11;6.23;;;2.70;;
21168;SDS011;10742;51.816;8.662;2024-02-04T05:16:32;3.73;;;2.53;;
21168;SDS011;10742;51.816;8.662;2024-02-04T05:19:53;5.03;;;2.53;;
21168;SDS011;10742;51.816;8.662;2024-02-04T05:23:14;4.87;;;3.03;;
21168;SDS011;10742;51.816;8.662;2024-02-04T05:26:35;5.97;;;3.10;;
21168;SDS011;10742;51.816;8.662;2024-02-04T05:29:56;6.97;;;3.30;;
21168;SDS011;10742;51.816;8.662;2024-02-04T05:33:17;5.83;;;3.33;;
21168;SDS011;10742;51.816;8.662;2024-02-04T05:36:38;7.90;;;3.97;;
21168;SDS011;10742;51.816;8.662;2024-02-04T05:39:59;7.00;;;4.03;;
21168;SDS011;10742;51.816;8.662;2024-02-04T05:43:20;9.77;;;4.67;;
21168;SDS011;10742;51.816;8.662;2024-02-04T05:46:41;9.30;;;4.97;;
21168;SDS011;10742;51.816;8.662;2024-02-04T05:50:03;12.03;;;5.67;;
21168;SDS011;10742;51.816;8.662;2024-02-04T05:53:24;10.93;;;5.43;;
21168;SDS011;10742;51.816;8.662;2024-02-04T05:56:45;11.73;;;5.50;;
21168;SDS011;10742;51.816;8.662;2024-02-04T06:00:07;14.83;;;6.43;;
21168;SDS011;10742;51.816;8.662;2024-02-04T06:03:30;13.07;;;6.17;;
21168;SDS011;10742;51.816;8.662;2024-02-04T06:06:52;15.17;;;7.00;;
21168;SDS011;10742;51.816;8.662;2024-02-04T06:10:13;14.97;;;7.10;;
21168;SDS011;10742;51.816;8.662;2024-02-04T06:13:34;15.20;;;6.20;;
21168;SDS011;10742;51.816;8.662;2024-02-04T06:16:54;17.67;;;6.20;;
21168;SDS011;10742;51.816;8.662;2024-02-04T06:20:15;11.53;;;4.97;;
21168;SDS011;10742;51.816;8.662;2024-02-04T06:23:37;10.27;;;4.70;;
21168;SDS011;10742;51.816;8.662;2024-02-04T06:27:00;12.03;;;5.00;;
21168;SDS011;10742;51.816;8.662;2024-02-04T06:30:22;11.17;;;4.63;;
21168;SDS011;10742;51.816;8.662;2024-02-04T06:33:43;9.63;;;4.93;;
21168;SDS011;10742;51.816;8.662;2024-02-04T06:37:04;16.73;;;6.50;;
21168;SDS011;10742;51.816;8.662;2024-02-04T06:40:25;14.40;;;6.70;;
21168;SDS011;10742;51.816;8.662;2024-02-04T06:43:46;17.73;;;7.30;;
21168;SDS011;10742;51.816;8.662;2024-02-04T06:47:07;16.83;;;7.37;;
21168;SDS011;10742;51.816;8.662;2024-02-04T06:50:29;14.63;;;6.70;;
21168;SDS011;10742;51.816;8.662;2024-02-04T06:53:51;18.23;;;6.73;;
21168;SDS011;10742;51.816;8.662;2024-02-04T06:57:12;15.47;;;7.00;;
21168;SDS011;10742;51.816;8.662;2024-02-04T07:00:33;17.53;;;7.60;;
21168;SDS011;10742;51.816;8.662;2024-02-04T07:03:54;21.13;;;8.53;;
21168;SDS011;10742;51.816;8.662;2024-02-04T07:07:15;21.80;;;8.40;;
21168;SDS011;10742;51.816;8.662;2024-02-04T07:10:36;20.20;;;8.53;;
21168;SDS011;10742;51.816;8.662;2024-02-04T07:13:57;20.43;;;8.50;;
21168;SDS011;10742;51.816;8.662;2024-02-04T07:17:20;20.50;;;8.20;;
21168;SDS011;10742;51.816;8.662;2024-02-04T07:20:41;21.83;;;8.43;;
21168;SDS011;10742;51.816;8.662;2024-02-04T07:24:02;20.07;;;8.13;;
21168;SDS011;10742;51.816;8.662;2024-02-04T07:27:23;19.63;;;8.93;;
21168;SDS011;10742;51.816;8.662;2024-02-04T07:30:45;22.37;;;9.87;;
21168;SDS011;10742;51.816;8.662;2024-02-04T07:34:06;21.03;;;9.07;;
21168;SDS011;10742;51.816;8.662;2024-02-04T07:37:27;22.03;;;9.03;;
21168;SDS011;10742;51.816;8.662;2024-02-04T07:40:48;22.70;;;9.20;;
21168;SDS011;10742;51.816;8.662;2024-02-04T07:44:09;21.50;;;9.67;;
21168;SDS011;10742;51.816;8.662;2024-02-04T07:47:30;27.37;;;9.60;;
21168;SDS011;10742;51.816;8.662;2024-02-04T07:50:51;19.07;;;8.73;;
21168;SDS011;10742;51.816;8.662;2024-02-04T07:54:12;24.33;;;9.60;;
21168;SDS011;10742;51.816;8.662;2024-02-04T07:57:34;25.47;;;8.83;;
21168;SDS011;10742;51.816;8.662;2024-02-04T08:00:55;21.43;;;9.30;;
21168;SDS011;10742;51.816;8.662;2024-02-04T08:04:16;25.17;;;9.00;;
21168;SDS011;10742;51.816;8.662;2024-02-04T08:07:37;26.00;;;12.97;;
21168;SDS011;10742;51.816;8.662;2024-02-04T08:10:58;21.00;;;8.90;;
21168;SDS011;10742;51.816;8.662;2024-02-04T08:14:20;17.90;;;8.00;;
21168;SDS011;10742;51.816;8.662;2024-02-04T08:17:41;21.23;;;8.53;;
21168;SDS011;10742;51.816;8.662;2024-02-04T08:21:02;18.77;;;7.57;;
21168;SDS011;10742;51.816;8.662;2024-02-04T08:24:24;17.40;;;7.30;;
21168;SDS011;10742;51.816;8.662;2024-02-04T08:27:45;18.97;;;6.87;;
21168;SDS011;10742;51.816;8.662;2024-02-04T08:31:06;17.00;;;6.97;;
21168;SDS011;10742;51.816;8.662;2024-02-04T08:34:28;14.63;;;5.87;;
21168;SDS011;10742;51.816;8.662;2024-02-04T08:37:49;16.20;;;6.07;;
21168;SDS011;10742;51.816;8.662;2024-02-04T08:41:10;13.97;;;5.07;;
21168;SDS011;10742;51.816;8.662;2024-02-04T08:44:31;11.40;;;4.80;;
21168;SDS011;10742;51.816;8.662;2024-02-04T08:47:55;9.73;;;4.20;;
21168;SDS011;10742;51.816;8.662;2024-02-04T08:51:16;12.03;;;4.50;;
21168;SDS011;10742;51.816;8.662;2024-02-04T08:54:39;11.83;;;4.50;;
21168;SDS011;10742;51.816;8.662;2024-02-04T08:58:00;9.83;;;4.00;;
21168;SDS011;10742;51.816;8.662;2024-02-04T09:01:21;14.97;;;4.83;;
21168;SDS011;10742;51.816;8.662;2024-02-04T09:04:42;12.70;;;4.57;;
21168;SDS011;10742;51.816;8.662;2024-02-04T09:08:03;9.33;;;3.70;;
21168;SDS011;10742;51.816;8.662;2024-02-04T09:11:25;10.73;;;3.93;;
21168;SDS011;10742;51.816;8.662;2024-02-04T09:14:46;9.73;;;3.93;;
21168;SDS011;10742;51.816;8.662;2024-02-04T09:18:07;9.47;;;3.60;;
21168;SDS011;10742;51.816;8.662;2024-02-04T09:21:28;9.13;;;4.00;;
21168;SDS011;10742;51.816;8.662;2024-02-04T09:24:49;15.20;;;3.77;;
21168;SDS011;10742;51.816;8.662;2024-02-04T09:28:10;8.67;;;3.47;;
21168;SDS011;10742;51.816;8.662;2024-02-04T09:31:31;8.17;;;3.30;;
21168;SDS011;10742;51.816;8.662;2024-02-04T09:34:52;11.20;;;3.50;;
21168;SDS011;10742;51.816;8.662;2024-02-04T09:38:13;8.80;;;3.30;;
21168;SDS011;10742;51.816;8.662;2024-02-04T09:41:34;16.43;;;5.23;;
21168;SDS011;10742;51.816;8.662;2024-02-04T09:44:55;13.73;;;5.60;;
21168;SDS011;10742;51.816;8.662;2024-02-04T09:48:17;10.83;;;4.13;;
21168;SDS011;10742;51.816;8.662;2024-02-04T09:51:41;10.63;;;4.13;;
21168;SDS011;10742;51.816;8.662;2024-02-04T09:55:02;8.37;;;3.53;;
21168;SDS011;10742;51.816;8.662;2024-02-04T09:58:24;8.07;;;3.30;;
21168;SDS011;10742;51.816;8.662;2024-02-04T10:01:45;9.90;;;3.33;;
21168;SDS011;10742;51.816;8.662;2024-02-04T10:05:08;7.97;;;3.17;;
21168;SDS011;10742;51.816;8.662;2024-02-04T10:08:31;8.20;;;3.13;;
21168;SDS011;10742;51.816;8.662;2024-02-04T10:11:53;10.93;;;2.87;;
21168;SDS011;10742;51.816;8.662;2024-02-04T10:15:14;6.17;;;2.73;;
21168;SDS011;10742;51.816;8.662;2024-02-04T10:18:36;7.83;;;2.53;;
21168;SDS011;10742;51.816;8.662;2024-02-04T10:22:01;9.33;;;3.20;;
21168;SDS011;10742;51.816;8.662;2024-02-04T10:25:23;10.10;;;2.83;;
21168;SDS011;10742;51.816;8.662;2024-02-04T10:28:45;8.43;;;3.10;;
21168;SDS011;10742;51.816;8.662;2024-02-04T10:32:07;6.00;;;2.87;;
21168;SDS011;10742;51.816;8.662;2024-02-04T10:35:29;10.90;;;2.60;;
21168;SDS011;10742;51.816;8.662;2024-02-04T10:38:50;8.73;;;2.90;;
21168;SDS011;10742;51.816;8.662;2024-02-04T10:42:11;14.17;;;3.40;;
21168;SDS011;10742;51.816;8.662;2024-02-04T10:45:35;6.70;;;3.33;;
21168;SDS011;10742;51.816;8.662;2024-02-04T10:49:00;9.53;;;3.13;;
21168;SDS011;10742;51.816;8.662;2024-02-04T10:52:24;10.77;;;3.37;;
21168;SDS011;10742;51.816;8.662;2024-02-04T10:55:48;7.70;;;3.10;;
21168;SDS011;10742;51.816;8.662;2024-02-04T10:59:12;8.53;;;3.27;;
21168;SDS011;10742;51.816;8.662;2024-02-04T11:02:38;7.73;;;3.40;;
21168;SDS011;10742;51.816;8.662;2024-02-04T11:06:03;8.07;;;3.07;;
21168;SDS011;10742;51.816;8.662;2024-02-04T11:09:25;8.13;;;3.27;;
21168;SDS011;10742;51.816;8.662;2024-02-04T11:12:47;7.43;;;3.70;;
21168;SDS011;10742;51.816;8.662;2024-02-04T11:16:14;8.93;;;3.23;;
21168;SDS011;10742;51.816;8.662;2024-02-04T11:27:06;10.63;;;3.90;;
21168;SDS011;10742;51.816;8.662;2024-02-04T11:30:32;9.67;;;4.03;;
21168;SDS011;10742;51.816;8.662;2024-02-04T11:33:56;9.87;;;4.03;;
21168;SDS011;10742;51.816;8.662;2024-02-04T11:37:18;11.67;;;4.03;;
21168;SDS011;10742;51.816;8.662;2024-02-04T11:40:41;9.60;;;3.90;;
21168;SDS011;10742;51.816;8.662;2024-02-04T11:44:06;8.57;;;4.03;;
21168;SDS011;10742;51.816;8.662;2024-02-04T11:47:28;8.93;;;3.67;;
21168;SDS011;10742;51.816;8.662;2024-02-04T11:50:53;9.30;;;3.70;;
21168;SDS011;10742;51.816;8.662;2024-02-04T11:54:15;7.53;;;3.90;;
21168;SDS011;10742;51.816;8.662;2024-02-04T11:57:37;8.33;;;4.17;;
21168;SDS011;10742;51.816;8.662;2024-02-04T12:00:58;7.43;;;3.70;;
21168;SDS011;10742;51.816;8.662;2024-02-04T12:04:19;8.10;;;3.60;;
21168;SDS011;10742;51.816;8.662;2024-02-04T12:07:42;7.77;;;3.90;;
21168;SDS011;10742;51.816;8.662;2024-02-04T12:11:03;9.70;;;3.50;;
21168;SDS011;10742;51.816;8.662;2024-02-04T12:14:25;6.07;;;3.40;;
21168;SDS011;10742;51.816;8.662;2024-02-04T12:17:46;8.93;;;3.70;;
21168;SDS011;10742;51.816;8.662;2024-02-04T12:21:08;7.13;;;3.40;;
21168;SDS011;10742;51.816;8.662;2024-02-04T12:24:30;6.63;;;2.83;;
21168;SDS011;10742;51.816;8.662;2024-02-04T12:27:51;9.73;;;3.70;;
21168;SDS011;10742;51.816;8.662;2024-02-04T12:31:24;6.53;;;3.20;;
21168;SDS011;10742;51.816;8.662;2024-02-04T12:34:49;5.90;;;2.73;;
21168;SDS011;10742;51.816;8.662;2024-02-04T12:38:15;5.73;;;2.93;;
21168;SDS011;10742;51.816;8.662;2024-02-04T12:41:38;4.83;;;2.63;;
21168;SDS011;10742;51.816;8.662;2024-02-04T12:44:59;6.07;;;2.83;;
21168;SDS011;10742;51.816;8.662;2024-02-04T12:48:20;8.40;;;3.23;;
21168;SDS011;10742;51.816;8.662;2024-02-04T12:51:44;5.33;;;2.97;;
21168;SDS011;10742;51.816;8.662;2024-02-04T12:55:05;5.60;;;2.90;;
21168;SDS011;10742;51.816;8.662;2024-02-04T12:58:26;5.90;;;3.00;;
21168;SDS011;10742;51.816;8.662;2024-02-04T13:01:51;4.00;;;2.53;;
21168;SDS011;10742;51.816;8.662;2024-02-04T13:05:22;6.70;;;3.13;;
21168;SDS011;10742;51.816;8.662;2024-02-04T13:08:47;3.83;;;2.60;;
21168;SDS011;10742;51.816;8.662;2024-02-04T13:12:09;5.30;;;2.60;;
21168;SDS011;10742;51.816;8.662;2024-02-04T13:15:32;7.27;;;3.33;;
21168;SDS011;10742;51.816;8.662;2024-02-04T13:18:57;4.60;;;2.87;;
21168;SDS011;10742;51.816;8.662;2024-02-04T13:22:18;5.80;;;2.53;;
21168;SDS011;10742;51.816;8.662;2024-02-04T13:25:39;4.03;;;2.70;;
21168;SDS011;10742;51.816;8.662;2024-02-04T13:29:00;3.87;;;2.67;;
21168;SDS011;10742;51.816;8.662;2024-02-04T13:32:22;5.23;;;2.40;;
21168;SDS011;10742;51.816;8.662;2024-02-04T13:35:43;5.40;;;3.30;;
21168;SDS011;10742;51.816;8.662;2024-02-04T13:39:05;6.57;;;3.30;;
21168;SDS011;10742;51.816;8.662;2024-02-04T13:42:26;7.83;;;3.60;;
21168;SDS011;10742;51.816;8.662;2024-02-04T13:45:47;3.63;;;2.70;;
21168;SDS011;10742;51.816;8.662;2024-02-04T13:49:09;2.57;;;2.10;;
21168;SDS011;10742;51.816;8.662;2024-02-04T13:52:30;3.10;;;2.30;;
21168;SDS011;10742;51.816;8.662;2024-02-04T13:55:52;2.77;;;2.33;;
21168;SDS011;10742;51.816;8.662;2024-02-04T13:59:14;3.80;;;2.40;;
21168;SDS011;10742;51.816;8.662;2024-02-04T14:02:35;4.47;;;2.10;;
21168;SDS011;10742;51.816;8.662;2024-02-04T14:05:57;3.70;;;2.40;;
21168;SDS011;10742;51.816;8.662;2024-02-04T14:09:18;3.23;;;2.20;;
21168;SDS011;10742;51.816;8.662;2024-02-04T14:12:39;3.93;;;2.27;;
21168;SDS011;10742;51.816;8.662;2024-02-04T14:16:01;2.60;;;2.20;;
21168;SDS011;10742;51.816;8.662;2024-02-04T14:19:23;3.30;;;2.40;;
21168;SDS011;10742;51.816;8.662;2024-02-04T14:22:44;3.60;;;2.30;;
21168;SDS011;10742;51.816;8.662;2024-02-04T14:26:05;4.43;;;2.20;;
21168;SDS011;10742;51.816;8.662;2024-02-04T14:29:28;2.40;;;2.03;;
21168;SDS011;10742;51.816;8.662;2024-02-04T14:32:49;3.73;;;2.13;;
21168;SDS011;10742;51.816;8.662;2024-02-04T14:36:10;2.93;;;1.83;;
21168;SDS011;10742;51.816;8.662;2024-02-04T14:39:31;2.57;;;1.67;;
21168;SDS011;10742;51.816;8.662;2024-02-04T14:42:52;1.77;;;1.50;;
21168;SDS011;10742;51.816;8.662;2024-02-04T14:46:13;2.53;;;1.27;;
21168;SDS011;10742;51.816;8.662;2024-02-04T14:49:35;1.30;;;1.20;;
21168;SDS011;10742;51.816;8.662;2024-02-04T14:52:56;1.53;;;1.33;;
21168;SDS011;10742;51.816;8.662;2024-02-04T14:56:17;1.73;;;1.40;;
21168;SDS011;10742;51.816;8.662;2024-02-04T14:59:38;2.87;;;1.83;;
21168;SDS011;10742;51.816;8.662;2024-02-04T15:03:00;3.40;;;1.50;;
21168;SDS011;10742;51.816;8.662;2024-02-04T15:06:21;4.00;;;2.20;;
21168;SDS011;10742;51.816;8.662;2024-02-04T15:09:42;2.03;;;1.40;;
21168;SDS011;10742;51.816;8.662;2024-02-04T15:13:03;1.40;;;1.30;;
21168;SDS011;10742;51.816;8.662;2024-02-04T15:16:25;1.40;;;1.30;;
21168;SDS011;10742;51.816;8.662;2024-02-04T15:19:46;1.63;;;1.30;;
21168;SDS011;10742;51.816;8.662;2024-02-04T15:23:08;3.73;;;1.60;;
21168;SDS011;10742;51.816;8.662;2024-02-04T15:26:33;2.07;;;1.07;;
21168;SDS011;10742;51.816;8.662;2024-02-04T15:29:56;2.00;;;1.60;;
21168;SDS011;10742;51.816;8.662;2024-02-04T15:33:18;2.33;;;1.60;;
21168;SDS011;10742;51.816;8.662;2024-02-04T15:36:39;2.67;;;1.80;;
21168;SDS011;10742;51.816;8.662;2024-02-04T15:40:00;3.07;;;1.93;;
21168;SDS011;10742;51.816;8.662;2024-02-04T15:43:21;1.63;;;1.30;;
21168;SDS011;10742;51.816;8.662;2024-02-04T15:46:42;4.67;;;1.70;;
21168;SDS011;10742;51.816;8.662;2024-02-04T15:50:06;2.70;;;1.90;;
21168;SDS011;10742;51.816;8.662;2024-02-04T15:53:29;2.67;;;1.50;;
21168;SDS011;10742;51.816;8.662;2024-02-04T15:57:06;3.27;;;1.53;;
21168;SDS011;10742;51.816;8.662;2024-02-04T16:00:29;4.57;;;2.37;;
21168;SDS011;10742;51.816;8.662;2024-02-04T16:03:50;6.20;;;2.83;;
21168;SDS011;10742;51.816;8.662;2024-02-04T16:07:14;5.33;;;2.87;;
21168;SDS011;10742;51.816;8.662;2024-02-04T16:10:36;4.17;;;2.27;;
21168;SDS011;10742;51.816;8.662;2024-02-04T16:13:59;5.47;;;2.37;;
21168;SDS011;10742;51.816;8.662;2024-02-04T16:17:22;2.23;;;1.80;;
21168;SDS011;10742;51.816;8.662;2024-02-04T16:20:45;3.83;;;1.80;;
21168;SDS011;10742;51.816;8.662;2024-02-04T16:24:06;4.37;;;2.20;;
21168;SDS011;10742;51.816;8.662;2024-02-04T16:27:27;3.77;;;2.27;;
21168;SDS011;10742;51.816;8.662;2024-02-04T16:30:48;3.60;;;2.40;;
21168;SDS011;10742;51.816;8.662;2024-02-04T16:34:10;8.23;;;3.63;;
21168;SDS011;10742;51.816;8.662;2024-02-04T16:37:31;10.27;;;5.17;;
21168;SDS011;10742;51.816;8.662;2024-02-04T16:40:52;6.83;;;2.93;;
21168;SDS011;10742;51.816;8.662;2024-02-04T16:44:13;6.17;;;2.60;;
21168;SDS011;10742;51.816;8.662;2024-02-04T16:47:34;3.27;;;2.33;;
21168;SDS011;10742;51.816;8.662;2024-02-04T16:50:56;5.60;;;2.43;;
21168;SDS011;10742;51.816;8.662;2024-02-04T16:54:17;4.43;;;2.63;;
21168;SDS011;10742;51.816;8.662;2024-02-04T16:57:39;4.30;;;2.40;;
21168;SDS011;10742;51.816;8.662;2024-02-04T17:01:01;6.43;;;2.97;;
21168;SDS011;10742;51.816;8.662;2024-02-04T17:04:23;3.60;;;2.43;;
21168;SDS011;10742;51.816;8.662;2024-02-04T17:07:44;5.37;;;3.27;;
21168;SDS011;10742;51.816;8.662;2024-02-04T17:11:06;6.40;;;3.23;;
21168;SDS011;10742;51.816;8.662;2024-02-04T17:14:28;4.60;;;2.73;;
21168;SDS011;10742;51.816;8.662;2024-02-04T17:17:59;6.17;;;2.57;;
21168;SDS011;10742;51.816;8.662;2024-02-04T17:21:27;3.60;;;2.50;;
21168;SDS011;10742;51.816;8.662;2024-02-04T17:24:57;5.03;;;2.77;;
21168;SDS011;10742;51.816;8.662;2024-02-04T17:28:23;2.90;;;2.20;;
21168;SDS011;10742;51.816;8.662;2024-02-04T17:31:44;6.70;;;3.37;;
21168;SDS011;10742;51.816;8.662;2024-02-04T17:35:06;6.50;;;3.00;;
21168;SDS011;10742;51.816;8.662;2024-02-04T17:38:31;7.37;;;3.00;;
21168;SDS011;10742;51.816;8.662;2024-02-04T17:41:53;7.33;;;3.07;;
21168;SDS011;10742;51.816;8.662;2024-02-04T17:45:15;8.07;;;3.37;;
21168;SDS011;10742;51.816;8.662;2024-02-04T17:48:36;8.17;;;3.30;;
21168;SDS011;10742;51.816;8.662;2024-02-04T17:51:57;10.17;;;4.73;;
21168;SDS011;10742;51.816;8.662;2024-02-04T17:55:18;5.93;;;3.67;;
21168;SDS011;10742;51.816;8.662;2024-02-04T17:58:41;9.93;;;4.70;;
21168;SDS011;10742;51.816;8.662;2024-02-04T18:02:02;7.23;;;4.20;;
21168;SDS011;10742;51.816;8.662;2024-02-04T18:05:23;8.83;;;4.50;;
21168;SDS011;10742;51.816;8.662;2024-02-04T18:08:44;9.53;;;5.10;;
21168;SDS011;10742;51.816;8.662;2024-02-04T18:12:05;10.87;;;5.83;;
21168;SDS011;10742;51.816;8.662;2024-02-04T18:15:27;14.03;;;7.77;;
21168;SDS011;10742;51.816;8.662;2024-02-04T18:18:48;17.17;;;9.07;;
21168;SDS011;10742;51.816;8.662;2024-02-04T18:22:09;14.47;;;8.27;;
21168;SDS011;10742;51.816;8.662;2024-02-04T18:25:30;16.27;;;8.30;;
21168;SDS011;10742;51.816;8.662;2024-02-04T18:28:52;17.33;;;8.70;;
21168;SDS011;10742;51.816;8.662;2024-02-04T18:32:15;17.90;;;9.77;;
21168;SDS011;10742;51.816;8.662;2024-02-04T18:35:36;16.03;;;8.97;;
21168;SDS011;10742;51.816;8.662;2024-02-04T18:38:57;17.00;;;8.90;;
21168;SDS011;10742;51.816;8.662;2024-02-04T18:42:18;18.20;;;9.63;;
21168;SDS011;10742;51.816;8.662;2024-02-04T18:45:40;17.80;;;9.70;;
21168;SDS011;10742;51.816;8.662;2024-02-04T18:49:01;16.33;;;9.27;;
21168;SDS011;10742;51.816;8.662;2024-02-04T18:52:23;16.00;;;9.00;;
21168;SDS011;10742;51.816;8.662;2024-02-04T18:55:47;17.77;;;9.83;;
21168;SDS011;10742;51.816;8.662;2024-02-04T18:59:10;17.83;;;9.60;;
21168;SDS011;10742;51.816;8.662;2024-02-04T19:02:31;17.93;;;9.77;;
21168;SDS011;10742;51.816;8.662;2024-02-04T19:05:52;19.00;;;10.23;;
21168;SDS011;10742;51.816;8.662;2024-02-04T19:09:16;18.13;;;9.70;;
21168;SDS011;10742;51.816;8.662;2024-02-04T19:12:37;18.97;;;10.00;;
21168;SDS011;10742;51.816;8.662;2024-02-04T19:15:59;18.70;;;10.40;;
21168;SDS011;10742;51.816;8.662;2024-02-04T19:19:20;20.93;;;10.97;;
21168;SDS011;10742;51.816;8.662;2024-02-04T19:22:42;22.10;;;10.90;;
21168;SDS011;10742;51.816;8.662;2024-02-04T19:26:04;24.30;;;11.63;;
21168;SDS011;10742;51.816;8.662;2024-02-04T19:29:25;19.90;;;10.53;;
21168;SDS011;10742;51.816;8.662;2024-02-04T19:32:46;18.23;;;10.03;;
21168;SDS011;10742;51.816;8.662;2024-02-04T19:36:08;19.43;;;9.57;;
21168;SDS011;10742;51.816;8.662;2024-02-04T19:39:30;16.60;;;8.77;;
21168;SDS011;10742;51.816;8.662;2024-02-04T19:42:51;17.53;;;8.33;;
21168;SDS011;10742;51.816;8.662;2024-02-04T19:46:13;13.97;;;7.60;;
21168;SDS011;10742;51.816;8.662;2024-02-04T19:49:34;13.20;;;7.67;;
21168;SDS011;10742;51.816;8.662;2024-02-04T19:52:55;11.23;;;7.07;;
21168;SDS011;10742;51.816;8.662;2024-02-04T19:56:16;12.80;;;7.30;;
21168;SDS011;10742;51.816;8.662;2024-02-04T19:59:37;14.63;;;7.33;;
21168;SDS011;10742;51.816;8.662;2024-02-04T20:02:58;12.10;;;6.43;;
21168;SDS011;10742;51.816;8.662;2024-02-04T20:06:20;12.03;;;6.10;;
21168;SDS011;10742;51.816;8.662;2024-02-04T20:09:41;12.80;;;6.50;;
21168;SDS011;10742;51.816;8.662;2024-02-04T20:13:05;9.57;;;5.50;;
21168;SDS011;10742;51.816;8.662;2024-02-04T20:16:26;12.77;;;5.80;;
21168;SDS011;10742;51.816;8.662;2024-02-04T20:19:48;9.90;;;6.20;;